Time;durP1;ratioP1;P1;durP2;ratioP2;P2;SDS_P1;SDS_P2;PMS_P1;PMS_P2;Temp;Humidity;BMP_temperature;BMP_pressure;BME280_temperature;BME280_humidity;BME280_pressure;Samples;Min_cycle;Max_cycle;Signal;HPM_P1;HPM_P2
2023/01/26 00:01:43;;;;;;;15.90;8.68;;;;;;;0.25;81.52;99556.63;5042852;28;20032;-79
2023/01/26 00:04:09;;;;;;;15.45;8.55;;;;;;;0.12;81.36;99546.63;5053017;28;20040;-78
2023/01/26 00:06:34;;;;;;;19.40;10.50;;;;;;;-0.35;83.29;99559.53;5027952;28;20035;-78
2023/01/26 00:09:00;;;;;;;18.50;9.23;;;;;;;0.04;82.44;99546.66;5051700;28;20094;-79
2023/01/26 00:11:30;;;;;;;22.05;11.07;;;;;;;-0.17;82.66;99557.59;5037126;28;20044;-79
2023/01/26 00:13:58;;;;;;;23.38;12.73;;;;;;;0.16;82.01;99550.56;5056418;28;20029;-79
2023/01/26 00:16:24;;;;;;;24.95;12.00;;;;;;;0.14;81.38;99549.09;5031505;28;20040;-79
2023/01/26 00:18:50;;;;;;;23.52;12.52;;;;;;;0.08;81.87;99534.00;5073101;28;20025;-79
2023/01/26 00:21:20;;;;;;;31.40;15.45;;;;;;;-0.95;83.26;99556.28;5033029;28;20032;-78
2023/01/26 00:23:47;;;;;;;30.60;14.52;;;;;;;-0.50;83.63;99550.66;5044634;28;20025;-78
2023/01/26 00:26:16;;;;;;;30.58;15.57;;;;;;;-0.96;85.06;99543.34;5037764;28;20635;-78
2023/01/26 00:28:41;;;;;;;32.15;16.05;;;;;;;-0.18;83.15;99537.63;5054343;28;20040;-78
2023/01/26 00:31:24;;;;;;;32.67;15.30;;;;;;;-0.28;83.09;99538.75;5059638;28;20037;-78
2023/01/26 00:33:50;;;;;;;36.10;17.58;;;;;;;-0.43;82.53;99522.00;5060135;28;20124;-78
2023/01/26 00:36:16;;;;;;;36.35;16.98;;;;;;;-0.03;82.05;99522.88;5074388;28;20029;-79
2023/01/26 00:38:42;;;;;;;30.15;15.63;;;;;;;-0.07;81.65;99512.88;5050280;28;20021;-78
2023/01/26 00:41:08;;;;;;;30.38;16.55;;;;;;;-0.15;82.01;99516.28;5069096;28;20062;-78
2023/01/26 00:43:34;;;;;;;30.08;14.77;;;;;;;0.04;82.17;99523.03;5020827;28;20033;-78
2023/01/26 00:45:59;;;;;;;30.45;15.00;;;;;;;-0.90;83.58;99504.25;5038897;28;20036;-78
2023/01/26 00:48:24;;;;;;;34.45;15.88;;;;;;;-0.33;82.42;99480.72;5052130;28;20043;-78
2023/01/26 00:50:51;;;;;;;36.47;15.90;;;;;;;-0.14;81.44;99512.69;5059105;28;20776;-78
2023/01/26 00:53:17;;;;;;;32.15;15.38;;;;;;;-0.28;81.16;99497.59;5019811;28;20511;-78
2023/01/26 00:55:42;;;;;;;31.88;15.95;;;;;;;-0.17;81.28;99494.66;5054791;28;20058;-78
2023/01/26 00:58:08;;;;;;;30.15;14.52;;;;;;;-0.17;80.92;99506.94;5045334;28;20029;-78
2023/01/26 01:00:35;;;;;;;31.92;15.88;;;;;;;0.11;80.91;99496.94;5059553;28;20166;-78
2023/01/26 01:03:01;;;;;;;29.83;14.57;;;;;;;0.09;80.44;99491.84;5040661;28;20025;-78
2023/01/26 01:05:28;;;;;;;29.92;14.38;;;;;;;-0.08;81.26;99491.06;5059091;28;20567;-78
2023/01/26 01:07:54;;;;;;;33.08;15.30;;;;;;;-0.09;80.86;99483.34;5056490;28;20098;-78
2023/01/26 01:10:20;;;;;;;28.00;14.13;;;;;;;-0.17;80.54;99497.28;5027745;28;20032;-78
2023/01/26 01:12:45;;;;;;;34.42;15.57;;;;;;;-0.30;79.48;99486.47;5040396;28;21056;-78
2023/01/26 01:15:11;;;;;;;30.95;14.25;;;;;;;-0.14;80.54;99493.50;5052872;28;20504;-78
2023/01/26 01:17:37;;;;;;;30.75;16.23;;;;;;;-0.13;79.96;99489.88;5061996;28;20020;-78
2023/01/26 01:20:07;;;;;;;31.67;14.80;;;;;;;-0.42;80.97;99490.41;5039697;28;20098;-78
2023/01/26 01:22:34;;;;;;;28.70;15.50;;;;;;;-0.79;82.47;99498.66;5037633;28;20762;-78
2023/01/26 01:24:59;;;;;;;34.35;16.98;;;;;;;-0.58;82.26;99498.22;5058886;28;20094;-78
2023/01/26 01:27:24;;;;;;;32.13;15.95;;;;;;;-0.35;80.49;99499.22;5034516;28;20040;-78
2023/01/26 01:29:50;;;;;;;32.53;15.48;;;;;;;-0.10;81.08;99506.13;5034215;28;20146;-78
2023/01/26 01:32:16;;;;;;;26.58;15.48;;;;;;;0.09;79.62;99501.53;5066927;28;20527;-78
2023/01/26 01:34:41;;;;;;;29.27;15.23;;;;;;;0.00;79.80;99492.88;5059979;28;20076;-78
2023/01/26 01:37:06;;;;;;;38.50;17.90;;;;;;;-0.17;80.10;99499.91;5030204;28;20021;-78
2023/01/26 01:39:32;;;;;;;35.45;16.50;;;;;;;-0.05;79.41;99485.47;5038516;28;20033;-78
2023/01/26 01:41:57;;;;;;;36.33;17.58;;;;;;;-0.24;79.68;99490.25;5041435;28;20038;-78
2023/01/26 01:44:24;;;;;;;33.03;16.52;;;;;;;-0.22;80.14;99490.91;5065328;28;20499;-78
2023/01/26 01:47:03;;;;;;;34.72;15.25;;;;;;;-0.08;79.04;99488.44;5055728;28;20112;-78
2023/01/26 01:49:41;;;;;;;29.50;15.40;;;;;;;-0.04;79.32;99492.34;5033555;28;20043;-78
2023/01/26 01:52:16;;;;;;;32.83;16.02;;;;;;;-0.09;79.14;99491.22;5059586;28;20063;-78
2023/01/26 01:54:53;;;;;;;28.60;15.15;;;;;;;-0.15;78.77;99482.19;5063124;28;20116;-78
2023/01/26 01:57:29;;;;;;;35.22;15.63;;;;;;;-0.06;78.76;99481.22;5059644;28;20044;-78
2023/01/26 02:00:17;;;;;;;31.67;16.40;;;;;;;-0.11;79.18;99480.06;5067991;28;20485;-78
2023/01/26 02:03:09;;;;;;;32.45;16.98;;;;;;;-0.67;78.97;99483.47;5056999;28;20025;-78
2023/01/26 02:05:34;;;;;;;34.78;17.33;;;;;;;-0.19;79.16;99478.25;5058698;28;20033;-78
2023/01/26 02:08:01;;;;;;;33.35;15.35;;;;;;;-0.18;79.05;99479.91;5046723;28;20103;-78
2023/01/26 02:10:28;;;;;;;29.35;15.93;;;;;;;-0.29;79.36;99475.00;5027069;28;20472;-78
2023/01/26 02:13:05;;;;;;;35.35;17.13;;;;;;;-0.60;78.65;99473.97;5076855;28;20119;-78
2023/01/26 02:15:30;;;;;;;39.65;17.23;;;;;;;-0.26;79.47;99479.06;5043894;28;20031;-78
2023/01/26 02:17:59;;;;;;;42.83;18.52;;;;;;;-1.08;79.04;99476.50;5055074;28;20037;-78
2023/01/26 02:20:52;;;;;;;37.60;17.42;;;;;;;-0.52;79.89;99468.75;5068724;28;20041;-78
2023/01/26 02:23:36;;;;;;;42.10;18.38;;;;;;;-0.77;80.05;99467.91;5051595;28;20063;-78
2023/01/26 02:26:06;;;;;;;47.42;22.02;;;;;;;-0.44;79.56;99457.47;5059969;28;20516;-78
2023/01/26 02:28:32;;;;;;;44.10;20.08;;;;;;;-0.52;79.03;99449.56;5059120;28;20107;-78
2023/01/26 02:30:58;;;;;;;41.60;18.85;;;;;;;-0.24;79.22;99449.06;5057719;28;20132;-78
2023/01/26 02:33:26;;;;;;;39.90;18.73;;;;;;;-0.37;78.64;99454.00;5046459;28;20033;-78
2023/01/26 02:35:51;;;;;;;46.03;18.75;;;;;;;-0.18;78.58;99458.94;5030088;28;20400;-78
2023/01/26 02:38:19;;;;;;;38.03;18.17;;;;;;;-0.13;78.59;99448.75;5040058;28;20340;-78
2023/01/26 02:40:52;;;;;;;45.75;20.45;;;;;;;-0.10;78.12;99443.19;5050811;28;20656;-78
2023/01/26 02:43:17;;;;;;;38.08;17.35;;;;;;;-0.15;77.82;99436.78;5057691;28;20038;-78
2023/01/26 02:45:44;;;;;;;40.85;18.13;;;;;;;-0.34;78.76;99448.44;5046826;28;20040;-78
2023/01/26 02:48:09;;;;;;;50.05;19.85;;;;;;;-0.16;78.43;99446.47;5054342;28;20460;-78
2023/01/26 02:50:35;;;;;;;41.05;18.10;;;;;;;-0.35;77.77;99425.81;5019236;28;20064;-78
2023/01/26 02:53:01;;;;;;;45.92;20.77;;;;;;;-0.36;78.48;99434.66;5061598;28;20380;-78
2023/01/26 02:55:27;;;;;;;41.17;20.17;;;;;;;-0.27;78.96;99438.94;5035512;28;20519;-78
2023/01/26 02:57:57;;;;;;;44.90;19.70;;;;;;;-0.29;78.33;99427.78;5063525;28;20032;-78
2023/01/26 03:00:26;;;;;;;51.55;22.92;;;;;;;-0.39;78.47;99435.00;5059682;28;20036;-78
2023/01/26 03:02:55;;;;;;;47.15;21.85;;;;;;;-0.31;78.31;99423.69;5032420;28;20491;-78
2023/01/26 03:05:20;;;;;;;45.42;20.55;;;;;;;-0.25;78.17;99430.88;5030895;28;20055;-78
2023/01/26 03:07:46;;;;;;;51.88;21.33;;;;;;;-0.23;77.92;99440.25;5024000;28;21672;-78
2023/01/26 03:10:12;;;;;;;56.15;24.08;;;;;;;-1.24;80.21;99421.44;5076088;28;20037;-78
2023/01/26 03:12:37;;;;;;;56.47;24.85;;;;;;;-1.71;82.41;99427.19;5021968;28;20044;-78
2023/01/26 03:17:48;;;;;;;53.17;22.40;;;;;;;-0.61;80.60;99430.41;5050954;28;20032;-78
2023/01/26 03:28:25;;;;;;;53.33;23.77;;;;;;;-0.52;80.39;99423.34;5039229;28;20043;-79
2023/01/26 03:30:54;;;;;;;66.65;25.88;;;;;;;-0.85;80.39;99412.03;5058880;28;20404;-78
2023/01/26 03:33:20;;;;;;;60.60;24.95;;;;;;;-1.19;81.17;99401.66;5065992;28;20044;-78
2023/01/26 03:35:46;;;;;;;59.00;24.40;;;;;;;-0.73;80.20;99413.38;5055615;28;20025;-78
2023/01/26 03:38:11;;;;;;;58.13;24.83;;;;;;;-0.62;80.34;99407.81;5051902;28;20040;-78
2023/01/26 03:57:02;;;;;;;51.92;22.67;;;;;;;-0.50;78.94;99392.56;5028321;28;20093;-77
2023/01/26 03:59:37;;;;;;;55.05;23.08;;;;;;;-0.58;78.70;99406.50;5028573;28;20033;-77
2023/01/26 04:10:24;;;;;;;52.90;23.33;;;;;;;-0.43;78.20;99396.16;5053075;28;20031;-77
2023/01/26 04:23:47;;;;;;;66.80;25.65;;;;;;;-0.51;79.30;99390.91;5038322;28;20036;-77
2023/01/26 04:26:13;;;;;;;57.65;26.88;;;;;;;-0.40;78.65;99393.22;5044072;28;20029;-77
2023/01/26 04:28:38;;;;;;;61.67;25.67;;;;;;;-0.37;79.18;99396.31;5041351;28;20097;-77
2023/01/26 04:31:04;;;;;;;60.85;26.17;;;;;;;-0.50;79.25;99389.97;5042175;28;20139;-78
2023/01/26 04:33:29;;;;;;;64.43;28.95;;;;;;;-0.51;78.96;99399.63;5038489;28;20032;-77
2023/01/26 04:35:55;;;;;;;54.03;25.83;;;;;;;-0.42;78.89;99392.56;5028726;28;20036;-77
2023/01/26 04:38:20;;;;;;;55.20;25.67;;;;;;;-0.55;78.26;99403.56;5053406;28;20033;-78
2023/01/26 04:40:52;;;;;;;65.72;26.80;;;;;;;-1.28;80.92;99388.72;5060595;28;20025;-77
2023/01/26 04:43:18;;;;;;;69.03;26.17;;;;;;;-0.65;79.73;99389.78;5041791;28;20405;-77
2023/01/26 04:45:43;;;;;;;62.63;26.80;;;;;;;-0.52;78.96;99386.66;5057709;28;20033;-77
2023/01/26 04:48:11;;;;;;;66.53;26.77;;;;;;;-0.75;79.86;99381.25;5040701;28;20029;-77
2023/01/26 04:50:36;;;;;;;67.53;27.35;;;;;;;-0.67;79.59;99383.88;5038801;28;20388;-77
2023/01/26 04:53:01;;;;;;;65.47;27.35;;;;;;;-1.34;80.14;99347.47;5035080;28;20024;-78
2023/01/26 04:55:27;;;;;;;84.20;31.00;;;;;;;-1.59;82.92;99377.97;5055004;28;20617;-77
2023/01/26 04:57:52;;;;;;;72.57;29.30;;;;;;;-2.15;83.96;99373.31;5029341;28;20155;-77
2023/01/26 05:00:18;;;;;;;83.88;30.38;;;;;;;-1.32;83.78;99372.50;5022919;28;20041;-77
2023/01/26 05:02:44;;;;;;;79.72;31.88;;;;;;;-1.29;81.31;99379.22;5035497;28;20045;-77
2023/01/26 05:05:09;;;;;;;80.55;29.08;;;;;;;-2.00;82.95;99370.94;5015731;28;20488;-77
2023/01/26 05:07:35;;;;;;;78.00;27.48;;;;;;;-0.93;82.38;99370.94;5032934;28;20055;-77
2023/01/26 05:10:00;;;;;;;70.25;26.85;;;;;;;-0.74;80.32;99371.63;5040571;28;20039;-78
2023/01/26 05:12:36;;;;;;;71.95;27.25;;;;;;;-0.66;80.04;99371.59;5030471;28;21522;-78
2023/01/26 05:15:01;;;;;;;;;;;;;;;-0.66;80.70;99375.03;5060510;28;20037;-78
2023/01/26 05:17:26;;;;;;;70.03;26.97;;;;;;;-2.19;81.38;99377.22;5059866;28;19916;-78
2023/01/26 05:19:52;;;;;;;76.30;27.60;;;;;;;-1.43;83.04;99377.22;5075259;28;20606;-78
2023/01/26 05:22:17;;;;;;;69.22;28.02;;;;;;;-0.72;80.77;99380.91;5047198;28;20044;-78
2023/01/26 05:24:42;;;;;;;68.10;29.42;;;;;;;-1.28;80.26;99367.75;5050339;28;20062;-78
2023/01/26 05:27:20;;;;;;;74.90;29.98;;;;;;;-0.86;80.27;99373.72;5031037;28;20036;-78
2023/01/26 05:29:45;;;;;;;72.65;28.90;;;;;;;-0.76;79.61;99356.84;5062054;28;20115;-78
2023/01/26 05:32:11;;;;;;;75.50;28.73;;;;;;;-0.73;79.30;99363.56;5073783;28;20559;-77
2023/01/26 05:34:37;;;;;;;73.75;29.17;;;;;;;-0.73;80.25;99373.22;5049073;28;20028;-78
2023/01/26 05:37:02;;;;;;;79.10;31.45;;;;;;;-0.70;79.90;99371.13;5076261;28;20032;-79
2023/01/26 05:39:28;;;;;;;78.50;29.58;;;;;;;-0.65;79.32;99352.25;5049461;28;20040;-78
2023/01/26 05:41:55;;;;;;;81.68;31.40;;;;;;;-1.34;79.83;99353.53;5040867;28;20025;-77
2023/01/26 05:44:21;;;;;;;81.63;29.73;;;;;;;-1.65;80.79;99360.31;5064716;28;20028;-78
2023/01/26 05:46:47;;;;;;;80.65;29.48;;;;;;;-1.60;81.55;99366.72;5059605;28;20033;-78
2023/01/26 05:49:12;;;;;;;71.07;28.45;;;;;;;-1.21;80.93;99355.66;5025712;28;20036;-77
2023/01/26 05:51:37;;;;;;;78.85;30.48;;;;;;;-1.09;82.07;99357.00;5029103;28;20037;-77
2023/01/26 05:54:03;;;;;;;75.60;29.40;;;;;;;-0.68;80.53;99358.66;5015036;28;20086;-78
2023/01/26 05:56:28;;;;;;;69.25;28.58;;;;;;;-0.40;79.54;99367.81;5064498;28;20036;-78
2023/01/26 05:58:54;;;;;;;77.68;29.38;;;;;;;-0.87;79.27;99369.44;5045808;28;20040;-78
2023/01/26 06:01:19;;;;;;;73.80;30.55;;;;;;;-0.34;79.01;99376.81;5040068;28;20029;-78
2023/01/26 06:03:44;;;;;;;74.25;30.65;;;;;;;-0.84;79.13;99367.34;5044292;28;20039;-78
2023/01/26 06:06:10;;;;;;;85.63;31.50;;;;;;;-0.90;80.51;99367.19;5041282;28;20036;-78
2023/01/26 06:08:35;;;;;;;76.75;29.80;;;;;;;-0.60;79.40;99366.53;5058653;28;20059;-78
2023/01/26 06:11:00;;;;;;;73.07;28.30;;;;;;;-0.60;79.69;99368.31;5056240;28;20040;-78
2023/01/26 06:13:26;;;;;;;68.78;27.58;;;;;;;-0.15;79.04;99384.31;5022851;28;20043;-78
2023/01/26 06:15:51;;;;;;;72.43;30.10;;;;;;;-0.60;78.34;99387.50;5059558;28;20099;-78
2023/01/26 06:18:16;;;;;;;63.65;28.23;;;;;;;-0.08;78.71;99378.25;5032709;28;20043;-78
2023/01/26 06:20:42;;;;;;;80.97;31.27;;;;;;;-0.57;78.44;99384.56;5055939;28;20119;-78
2023/01/26 06:23:10;;;;;;;75.05;30.45;;;;;;;-1.34;80.69;99395.41;5068784;28;20033;-78
2023/01/26 06:25:38;;;;;;;72.97;27.98;;;;;;;-1.77;82.12;99378.06;5074511;28;20028;-77
2023/01/26 06:28:04;;;;;;;80.30;29.27;;;;;;;-1.47;82.57;99384.56;5039655;28;20037;-77
2023/01/26 06:30:30;;;;;;;57.40;24.63;;;;;;;-1.68;81.72;99395.44;5062516;28;20555;-77
2023/01/26 06:32:56;;;;;;;67.95;26.90;;;;;;;-1.68;82.96;99395.44;5047633;28;20124;-77
2023/01/26 06:35:21;;;;;;;68.10;26.48;;;;;;;-1.34;83.11;99389.34;5062086;28;20437;-78
2023/01/26 06:37:51;;;;;;;55.30;21.05;;;;;;;-1.80;82.15;99386.25;5066522;28;20089;-77
2023/01/26 06:40:17;;;;;;;57.35;23.00;;;;;;;-1.70;81.87;99394.78;5041310;28;20033;-77
2023/01/26 06:42:49;;;;;;;68.65;24.63;;;;;;;-0.96;82.69;99394.03;5085948;28;20032;-78
2023/01/26 06:45:15;;;;;;;65.70;21.65;;;;;;;-1.40;80.50;99388.22;5067366;28;20091;-77
2023/01/26 06:47:49;;;;;;;58.03;24.70;;;;;;;-0.91;82.80;99391.72;5054116;28;20058;-77
2023/01/26 06:50:18;;;;;;;60.90;23.67;;;;;;;-0.66;81.58;99379.47;5033580;28;20059;-77
2023/01/26 06:52:49;;;;;;;72.28;22.60;;;;;;;-0.54;81.02;99394.69;5034618;28;20041;-77
2023/01/26 06:55:21;;;;;;;54.38;22.02;;;;;;;-1.21;82.19;99397.56;5058493;28;20025;-77
2023/01/26 06:57:46;;;;;;;59.47;20.52;;;;;;;-1.34;80.90;99384.13;5052536;28;20016;-77
2023/01/26 07:00:12;;;;;;;66.00;25.58;;;;;;;-0.85;82.22;99386.66;5040523;28;20506;-77
2023/01/26 07:02:39;;;;;;;52.03;22.00;;;;;;;-0.69;81.15;99388.47;5070839;28;20021;-77
2023/01/26 07:05:04;;;;;;;63.45;21.45;;;;;;;-1.12;81.23;99399.22;5035092;28;20032;-77
2023/01/26 07:07:30;;;;;;;53.47;21.88;;;;;;;-0.72;81.11;99388.00;5035376;28;20498;-77
2023/01/26 07:09:55;;;;;;;52.55;20.52;;;;;;;-0.58;81.35;99397.81;5030860;28;20021;-77
2023/01/26 07:12:20;;;;;;;64.05;21.95;;;;;;;-1.17;81.51;99388.41;5050221;28;20076;-77
2023/01/26 07:14:46;;;;;;;54.33;22.27;;;;;;;-1.03;83.62;99390.41;5018987;28;20032;-77
2023/01/26 07:17:11;;;;;;;62.63;21.25;;;;;;;-0.90;81.88;99394.19;5064682;28;20028;-78
2023/01/26 07:19:37;;;;;;;64.38;20.98;;;;;;;-0.36;80.91;99392.72;5038647;28;20051;-78
2023/01/26 07:22:03;;;;;;;56.13;21.70;;;;;;;-0.40;80.69;99386.19;5050016;28;20484;-77
2023/01/26 07:24:28;;;;;;;47.85;20.25;;;;;;;-0.61;81.66;99392.91;5038711;28;20028;-77
2023/01/26 07:26:54;;;;;;;56.75;20.50;;;;;;;-0.31;80.85;99403.53;5059285;28;20078;-78
2023/01/26 07:29:20;;;;;;;57.90;21.33;;;;;;;-0.54;79.91;99402.56;5052742;28;20523;-78
2023/01/26 07:31:46;;;;;;;69.25;24.38;;;;;;;-1.16;82.61;99397.91;5047548;28;20032;-78
2023/01/26 07:34:11;;;;;;;57.55;23.15;;;;;;;-0.72;82.71;99407.13;5055722;28;20029;-78
2023/01/26 07:36:37;;;;;;;49.00;19.38;;;;;;;-0.37;80.61;99406.81;5064350;28;20067;-78
2023/01/26 07:39:03;;;;;;;52.05;20.30;;;;;;;-0.46;80.95;99404.38;5050785;28;20021;-78
2023/01/26 07:41:28;;;;;;;56.85;21.42;;;;;;;-0.74;81.86;99413.53;5058704;28;20392;-78
2023/01/26 07:43:54;;;;;;;60.20;21.05;;;;;;;-0.35;81.60;99411.91;5057810;28;20058;-78
2023/01/26 07:46:20;;;;;;;57.90;19.45;;;;;;;-0.85;82.64;99391.06;5060359;28;20125;-78
2023/01/26 07:48:45;;;;;;;59.67;20.73;;;;;;;-0.82;82.33;99407.31;5067910;28;20028;-78
2023/01/26 07:51:10;;;;;;;50.35;19.75;;;;;;;-0.35;82.15;99409.28;5050193;28;20044;-78
2023/01/26 07:53:38;;;;;;;54.33;20.58;;;;;;;-0.98;81.68;99401.19;5044947;28;20481;-78
2023/01/26 07:56:22;;;;;;;53.47;20.60;;;;;;;-0.81;82.98;99418.59;5078049;28;20047;-78
2023/01/26 07:58:53;;;;;;;54.53;21.77;;;;;;;-1.31;84.06;99396.91;5052283;28;20032;-78
2023/01/26 08:01:20;;;;;;;55.13;21.98;;;;;;;-0.92;83.62;99411.06;5059091;28;20070;-78
2023/01/26 08:03:49;;;;;;;60.97;22.02;;;;;;;-0.72;82.53;99416.81;5070200;28;20033;-77
2023/01/26 08:06:15;;;;;;;54.80;20.60;;;;;;;-0.32;82.50;99420.25;5033870;28;20033;-78
2023/01/26 08:08:41;;;;;;;51.25;20.42;;;;;;;-0.27;81.35;99427.63;5047576;28;20082;-78
2023/01/26 08:11:08;;;;;;;58.20;26.08;;;;;;;-0.48;81.12;99416.81;5048073;28;20119;-78
2023/01/26 08:13:33;;;;;;;60.85;21.63;;;;;;;-0.35;81.46;99412.69;5039573;28;20024;-78
2023/01/26 08:16:04;;;;;;;62.05;23.52;;;;;;;-0.35;81.16;99425.81;5048052;28;20059;-80
2023/01/26 08:18:30;;;;;;;52.30;21.25;;;;;;;-0.08;81.21;99420.22;5032386;28;20044;-78
2023/01/26 08:20:56;;;;;;;64.88;24.92;;;;;;;-0.43;81.43;99422.38;5076314;28;20039;-78
2023/01/26 08:23:21;;;;;;;62.35;24.42;;;;;;;-0.48;82.19;99415.00;5065830;28;20078;-78
2023/01/26 08:25:47;;;;;;;54.13;23.02;;;;;;;-0.36;82.70;99431.22;5051199;28;20059;-78
2023/01/26 08:28:12;;;;;;;67.32;23.02;;;;;;;-0.98;83.85;99427.41;5053224;28;20119;-80
2023/01/26 08:30:38;;;;;;;61.83;23.52;;;;;;;-0.85;83.13;99425.13;5050526;28;20037;-78
2023/01/26 08:33:04;;;;;;;63.22;25.42;;;;;;;-1.31;84.21;99426.50;5058453;28;20029;-78
2023/01/26 08:35:33;;;;;;;82.25;32.90;;;;;;;-1.86;86.05;99436.59;5069557;28;20392;-78
2023/01/26 08:37:59;;;;;;;72.82;26.75;;;;;;;-1.40;85.69;99419.63;5059997;28;20090;-78
2023/01/26 08:40:25;;;;;;;74.03;24.85;;;;;;;-1.49;84.39;99430.22;5042741;28;20048;-80
2023/01/26 08:42:51;;;;;;;60.10;23.35;;;;;;;-0.31;84.14;99435.00;5060701;28;20044;-78
2023/01/26 08:45:17;;;;;;;62.28;22.60;;;;;;;-0.13;82.09;99416.44;5053997;28;21299;-78
2023/01/26 08:47:44;;;;;;;61.88;24.58;;;;;;;-0.04;81.49;99410.19;5032822;28;20032;-78
2023/01/26 08:50:10;;;;;;;65.03;24.77;;;;;;;0.12;80.91;99417.22;5027279;28;20079;-78
2023/01/26 08:52:35;;;;;;;58.28;23.05;;;;;;;-0.60;83.33;99411.09;5049405;28;20488;-78
2023/01/26 08:55:03;;;;;;;60.15;24.60;;;;;;;-1.43;85.51;99421.72;5062966;28;20035;-78
2023/01/26 08:57:28;;;;;;;66.43;25.95;;;;;;;-1.52;85.15;99419.06;5074947;28;20040;-78
2023/01/26 08:59:54;;;;;;;57.55;22.77;;;;;;;-1.45;86.43;99437.59;5042911;28;20495;-78
2023/01/26 09:02:19;;;;;;;80.00;24.98;;;;;;;-1.64;85.86;99420.31;5044836;28;20082;-77
2023/01/26 09:04:44;;;;;;;65.57;24.58;;;;;;;-0.62;85.53;99420.09;5042006;28;20039;-78
2023/01/26 09:07:10;;;;;;;67.00;25.63;;;;;;;-1.11;85.07;99422.63;5061977;28;20138;-78
2023/01/26 09:09:35;;;;;;;68.10;25.17;;;;;;;-1.79;86.78;99426.31;5049801;28;20451;-78
2023/01/26 09:12:00;;;;;;;65.20;22.70;;;;;;;-1.47;87.37;99407.31;5070199;28;20052;-80
2023/01/26 09:14:27;;;;;;;65.43;23.08;;;;;;;-0.84;86.30;99416.31;5063749;28;20214;-78
2023/01/26 09:16:53;;;;;;;52.33;20.98;;;;;;;0.06;82.90;99413.47;5045983;28;20471;-78
2023/01/26 09:19:18;;;;;;;58.42;20.35;;;;;;;-0.11;83.04;99412.66;5054911;28;20075;-78
2023/01/26 09:21:43;;;;;;;68.90;25.92;;;;;;;0.11;81.45;99411.13;5049038;28;20376;-78
2023/01/26 09:24:09;;;;;;;58.03;23.77;;;;;;;-0.42;83.85;99403.88;5042044;28;20056;-78
2023/01/26 09:26:34;;;;;;;66.75;25.25;;;;;;;-0.44;84.43;99412.88;5039856;28;20464;-78
2023/01/26 09:29:00;;;;;;;55.33;22.50;;;;;;;-0.09;83.80;99417.78;5058090;28;20033;-78
2023/01/26 09:31:25;;;;;;;59.13;21.15;;;;;;;0.47;81.94;99420.22;5047828;28;20043;-78
2023/01/26 09:33:51;;;;;;;56.20;21.58;;;;;;;0.31;80.52;99404.53;5059544;28;20392;-78
2023/01/26 09:36:16;;;;;;;47.50;21.67;;;;;;;0.26;81.30;99403.41;5062163;28;20393;-79
2023/01/26 09:38:42;;;;;;;62.78;22.50;;;;;;;0.38;81.47;99417.78;5038459;28;20021;-78
2023/01/26 09:41:38;;;;;;;53.30;22.95;;;;;;;0.09;80.34;99421.00;5037634;28;20029;-78
2023/01/26 09:44:09;;;;;;;51.70;21.15;;;;;;;-0.26;81.97;99422.19;4990394;28;20090;-79
2023/01/26 09:47:06;;;;;;;47.42;21.23;;;;;;;-0.19;84.35;99430.22;5062238;28;20459;-79
2023/01/26 09:49:55;;;;;;;44.78;20.58;;;;;;;0.52;81.63;99419.72;5051689;28;20419;-79
2023/01/26 09:52:26;;;;;;;55.85;20.98;;;;;;;0.53;80.38;99409.03;5056908;28;20028;-79
2023/01/26 09:54:56;;;;;;;55.15;21.63;;;;;;;0.72;80.02;99415.69;5065126;28;20032;-79
2023/01/26 09:57:46;;;;;;;50.53;22.00;;;;;;;0.44;80.86;99427.59;5049914;28;20039;-79
2023/01/26 10:00:33;;;;;;;60.25;22.08;;;;;;;0.29;81.75;99417.00;5057018;28;20024;-79
2023/01/26 10:03:12;;;;;;;53.17;20.50;;;;;;;0.84;80.25;99419.56;5058685;28;20120;-79
2023/01/26 10:05:50;;;;;;;82.55;29.52;;;;;;;0.04;82.09;99418.06;5052435;28;20459;-79
2023/01/26 10:08:22;;;;;;;52.15;21.65;;;;;;;0.25;83.03;99401.75;5067010;28;20025;-79
2023/01/26 10:10:52;;;;;;;47.33;18.52;;;;;;;0.33;82.18;99412.25;5062865;28;20028;-79
2023/01/26 10:13:17;;;;;;;57.83;23.52;;;;;;;-0.03;82.48;99409.22;5057011;28;20528;-79
2023/01/26 10:15:49;;;;;;;62.35;23.08;;;;;;;0.04;81.57;99417.25;5046294;28;20029;-79
2023/01/26 10:18:23;;;;;;;45.20;19.75;;;;;;;0.08;82.58;99411.50;5063435;28;20099;-79
2023/01/26 10:20:52;;;;;;;44.25;19.95;;;;;;;-0.19;82.90;99411.88;5082843;28;20020;-79
2023/01/26 10:23:33;;;;;;;44.28;19.45;;;;;;;0.69;81.92;99405.53;5053153;28;20472;-79
2023/01/26 10:26:18;;;;;;;38.30;15.73;;;;;;;-0.38;82.24;99418.28;5026053;28;20112;-78
2023/01/26 10:28:45;;;;;;;40.90;17.27;;;;;;;0.18;83.75;99411.28;5069176;28;20160;-79
2023/01/26 10:31:20;;;;;;;49.42;19.08;;;;;;;0.32;83.08;99406.19;5047820;28;20029;-79
2023/01/26 10:33:58;;;;;;;43.65;18.70;;;;;;;0.41;83.02;99384.16;5060673;28;20020;-79
2023/01/26 10:36:24;;;;;;;42.10;18.02;;;;;;;0.23;82.49;99372.25;5058133;28;20029;-79
2023/01/26 10:38:51;;;;;;;40.45;17.92;;;;;;;0.44;83.28;99390.84;5052410;28;20039;-79
2023/01/26 10:41:28;;;;;;;41.15;17.80;;;;;;;0.20;82.32;99377.84;5067865;28;20357;-79
2023/01/26 10:44:02;;;;;;;48.38;18.30;;;;;;;0.36;83.75;99377.78;5056163;28;20029;-79
2023/01/26 10:46:39;;;;;;;47.15;19.40;;;;;;;0.68;81.82;99374.97;5069872;28;20036;-79
2023/01/26 10:49:08;;;;;;;47.03;18.77;;;;;;;0.33;82.05;99375.50;5074437;28;20029;-79
2023/01/26 10:51:36;;;;;;;40.42;17.45;;;;;;;-0.14;83.00;99370.22;5064165;28;20039;-79
2023/01/26 10:54:19;;;;;;;44.58;18.63;;;;;;;-0.21;84.99;99377.94;5059347;28;20028;-79
2023/01/26 10:56:51;;;;;;;37.75;17.08;;;;;;;0.15;84.48;99377.53;5061917;28;20028;-79
2023/01/26 10:59:24;;;;;;;39.33;16.25;;;;;;;0.81;82.78;99374.44;5062451;28;20472;-79
2023/01/26 11:02:17;;;;;;;40.15;16.25;;;;;;;0.74;83.03;99361.97;5060039;28;20404;-79
2023/01/26 11:05:00;;;;;;;36.28;16.08;;;;;;;0.81;82.13;99367.34;5036061;28;20032;-79
2023/01/26 11:07:30;;;;;;;34.97;16.17;;;;;;;0.63;82.10;99370.25;5054544;28;20119;-79
2023/01/26 11:09:56;;;;;;;40.08;15.77;;;;;;;1.13;81.09;99350.56;5062783;28;20385;-80
2023/01/26 11:12:24;;;;;;;41.47;16.63;;;;;;;1.21;80.43;99350.50;5069648;28;20032;-79
2023/01/26 11:15:03;;;;;;;35.47;15.10;;;;;;;1.23;79.94;99349.31;5052671;28;20127;-79
2023/01/26 11:18:00;;;;;;;39.28;16.77;;;;;;;0.67;80.57;99358.44;5046341;28;20028;-79
2023/01/26 11:20:45;;;;;;;37.03;16.40;;;;;;;0.76;81.26;99357.34;5051786;28;20040;-79
2023/01/26 11:23:21;;;;;;;35.80;16.73;;;;;;;1.56;80.48;99355.13;5054757;28;20464;-79
2023/01/26 11:26:05;;;;;;;33.35;14.50;;;;;;;1.41;80.36;99349.84;5063770;28;20051;-79
2023/01/26 11:28:37;;;;;;;33.65;15.77;;;;;;;1.65;79.28;99330.38;5061194;28;20081;-79
2023/01/26 11:31:31;;;;;;;30.52;13.18;;;;;;;1.83;78.53;99335.28;5049255;28;20029;-79
2023/01/26 11:34:27;;;;;;;29.65;13.98;;;;;;;1.93;78.34;99333.19;5058171;28;20021;-80
2023/01/26 11:36:58;;;;;;;41.88;17.92;;;;;;;1.84;78.43;99323.75;5050981;28;20021;-80
2023/01/26 11:39:43;;;;;;;38.92;15.75;;;;;;;1.94;78.42;99327.78;5060682;28;20024;-80
2023/01/26 11:42:12;;;;;;;32.53;14.83;;;;;;;1.96;78.12;99324.94;5063925;28;20055;-80
2023/01/26 11:45:30;;;;;;;37.60;16.73;;;;;;;1.89;78.52;99316.97;5060866;28;20307;-80
2023/01/26 11:48:21;;;;;;;38.20;16.75;;;;;;;1.62;78.08;99306.25;4973716;28;21363;-80
2023/01/26 11:51:08;;;;;;;34.67;16.58;;;;;;;1.77;79.23;99299.97;5064655;28;20428;-79
2023/01/26 11:53:57;;;;;;;31.55;14.90;;;;;;;2.17;77.88;99306.59;5070065;28;20024;-80
2023/01/26 11:56:40;;;;;;;40.38;18.08;;;;;;;1.81;77.23;99297.81;5067563;28;20417;-80
2023/01/26 11:59:10;;;;;;;33.15;16.23;;;;;;;2.01;77.79;99283.13;5064177;28;20111;-80
2023/01/26 12:01:52;;;;;;;30.73;14.85;;;;;;;1.92;77.61;99298.16;5054011;28;20029;-80
2023/01/26 12:04:20;;;;;;;33.47;16.67;;;;;;;1.57;78.39;99290.19;5053339;28;20028;-80
2023/01/26 12:06:54;;;;;;;39.20;16.60;;;;;;;1.63;79.16;99294.72;5057684;28;20111;-80
2023/01/26 12:09:38;;;;;;;33.03;16.33;;;;;;;1.46;78.57;99304.59;5030972;28;20048;-80
2023/01/26 12:12:15;;;;;;;35.63;16.15;;;;;;;1.42;80.63;99290.97;5040411;28;20044;-80
2023/01/26 12:15:13;;;;;;;39.72;17.52;;;;;;;1.97;78.61;99292.34;5063387;28;20452;-80
2023/01/26 12:17:57;;;;;;;33.75;14.68;;;;;;;1.92;78.57;99295.53;5039652;28;20380;-80